Últimos sismos

MagnitudMag. Fecha y hora Epicentro localización: latitud, longitud loc.: lat., long. ProfundidadProf.
4.2 2017-10-17    01:08:56 48 km al SUR de SALINA CRUZ, OAX: 15.75°, -95.20° 20 km
4.3 2017-10-17    00:47:40 41 km al NORESTE de CRUCECITA, OAX: 16.05°, -95.88° 50 km
4.2 2017-10-16    22:54:35 40 km al NOROESTE de SAN MARCOS, GRO: 17.12°, -99.56° 50 km
4.1 2017-10-16    22:46:14 19 km al SURESTE de SALINA CRUZ, OAX: 16.06°, -95.07° 46 km
4.1 2017-10-16    20:06:06 6 km al OESTE de JUCHITAN DE ZARAGOZA, OAX: 16.42°, -95.07° 75 km
4.2 2017-10-16    19:59:35 46 km al SUROESTE de MAPASTEPEC, CHIS: 15.10°, -93.14° 79 km
4.6 2017-10-16    15:45:12 54 km al SUR de SALINA CRUZ, OAX: 15.70°, -95.26° 60 km
3.7 2017-10-16    12:58:39 42 km al NORESTE de CRUCECITA, OAX: 16.04°, -95.86° 53 km
3.6 2017-10-16    12:34:50 123 km al SUROESTE de CD HIDALGO, CHIS: 14.05°, -93.10° 14 km
3.9 2017-10-16    12:28:55 34 km al SURESTE de SALINA CRUZ, OAX: 15.89°, -95.10° 14 km
3.9 2017-10-16    12:11:25 69 km al SUROESTE de SALINA CRUZ, OAX: 15.59°, -95.38° 53 km
3.9 2017-10-16    11:46:08 137 km al SUROESTE de TONALA, CHIS: 15.01°, -94.39° 16 km
3.9 2017-10-16    11:32:33 124 km al SUROESTE de CD HIDALGO, CHIS: 13.64°, -92.57° 10 km
3.5 2017-10-16    11:31:02 10 km al NORTE de CD IXTEPEC, OAX: 16.65°, -95.10° 93 km
3.7 2017-10-16    11:11:32 55 km al SUROESTE de MAPASTEPEC, CHIS: 14.99°, -93.10° 79 km
3.6 2017-10-16    11:08:41 10 km al NORESTE de CD IXTEPEC, OAX: 16.63°, -95.03° 114 km
3.8 2017-10-16    10:54:55 44 km al SUROESTE de TUXTEPEC, OAX: 17.81°, -96.42° 85 km
3.8 2017-10-16    10:51:58 128 km al SUROESTE de PINOTEPA NACIONAL, OAX: 15.43°, -98.78° 15 km
4.0 2017-10-16    10:12:30 141 km al SUROESTE de TONALA, CHIS: 14.92°, -94.28° 21 km
3.7 2017-10-16    10:06:38 90 km al SUROESTE de PIJIJIAPAN, CHIS: 15.13°, -93.82° 16 km
3.8 2017-10-16    10:01:07 121 km al SUROESTE de MAPASTEPEC, CHIS: 14.59°, -93.59° 22 km
3.7 2017-10-16    09:54:36 5 km al SUR de CD IXTEPEC, OAX: 16.52°, -95.11° 57 km
3.9 2017-10-16    09:51:14 28 km al SURESTE de SALINA CRUZ, OAX: 15.97°, -95.05° 23 km
3.8 2017-10-16    09:45:49 38 km al SURESTE de PETATLAN, GRO: 17.38°, -100.96° 45 km
4.0 2017-10-16    09:18:42 134 km al SUROESTE de TONALA, CHIS: 15.10°, -94.47° 16 km
3.6 2017-10-16    08:57:09 7 km al NORESTE de SALINA CRUZ, OAX: 16.24°, -95.17° 48 km
3.4 2017-10-16    07:52:47 9 km al NORESTE de YECAPIXTLA, MOR: 18.90°, -98.77° 8 km
3.9 2017-10-16    07:50:23 35 km al SUR de SALINA CRUZ, OAX: 15.87°, -95.24° 60 km
3.5 2017-10-16    07:49:08 38 km al SUR de SALINA CRUZ, OAX: 15.84°, -95.19° 46 km
3.9 2017-10-16    07:45:55 34 km al SUROESTE de SALINA CRUZ, OAX: 15.98°, -95.44° 35 km
3.8 2017-10-16    07:38:00 10 km al SURESTE de CD IXTEPEC, OAX: 16.53°, -95.02° 7 km
3.5 2017-10-16    07:25:42 10 km al SURESTE de JUAN MORALES, MOR: 18.76°, -98.84° 5 km
3.9 2017-10-16    07:16:32 122 km al SUROESTE de TONALA, CHIS: 15.15°, -94.35° 16 km
3.5 2017-10-16    06:33:54 45 km al SUR de SALINA CRUZ, OAX: 15.78°, -95.25° 9 km
3.6 2017-10-16    06:28:50 19 km al SUROESTE de ACAPULCO, GRO: 16.81°, -100.06° 5 km
3.7 2017-10-16    06:08:38 18 km al SUROESTE de TEHUANTEPEC, OAX: 16.25°, -95.39° 10 km
2.1 2017-10-16    06:05:29 1 km al SUR de COYOACAN, CDMX: 19.34°, -99.16° 3 km
2.3 2017-10-16    06:04:31 2 km al SURESTE de COYOACAN, CDMX: 19.33°, -99.15° 2 km
3.9 2017-10-16    06:00:29 65 km al SUR de H GUAYMAS, SON: 27.35°, -111.06° 10 km
3.9 2017-10-16    05:58:37 18 km al SUROESTE de SALINA CRUZ, OAX: 16.06°, -95.31° 27 km
3.3 2017-10-16    05:43:56 59 km al SUR de COALCOMAN, MICH: 18.25°, -103.10° 5 km
3.4 2017-10-16    05:34:31 30 km al NOROESTE de MATIAS ROMERO, OAX: 17.10°, -95.19° 110 km
3.5 2017-10-16    05:14:27 14 km al NORESTE de OMETEPEC, GRO: 16.80°, -98.36° 29 km
3.8 2017-10-16    05:09:49 42 km al NOROESTE de TEHUANTEPEC, OAX: 16.53°, -95.57° 9 km
4.0 2017-10-16    04:50:02 51 km al SUR de TONALA, CHIS: 15.63°, -93.81° 72 km
3.8 2017-10-16    03:48:25 11 km al SUROESTE de JUCHITAN DE ZARAGOZA, OAX: 16.41°, -95.12° 61 km
4.1 2017-10-16    03:44:31 131 km al SUROESTE de TONALA, CHIS: 15.12°, -94.46° 16 km
3.7 2017-10-16    03:36:48 28 km al NORESTE de LAS GUACAMAYAS, MICH: 18.10°, -101.96° 47 km
4.3 2017-10-16    03:25:40 114 km al SURESTE de SALINA CRUZ, OAX: 15.23°, -94.78° 11 km
2.3 2017-10-16    03:19:58 13 km al SUROESTE de ACTOPAN, HGO: 20.16°, -99.00° 5 km
2.4 2017-10-16    03:19:35 13 km al SUROESTE de ACTOPAN, HGO: 20.16°, -99.00° 5 km
2.5 2017-10-16    03:19:17 10 km al SUR de ACTOPAN, HGO: 20.18°, -98.96° 5 km
3.8 2017-10-16    03:15:24 36 km al SUR de SALINA CRUZ, OAX: 15.86°, -95.23° 12 km
4.1 2017-10-16    02:41:10 100 km al SURESTE de SALINA CRUZ, OAX: 15.37°, -94.78° 16 km
3.9 2017-10-16    02:12:02 19 km al SUR de SALINA CRUZ, OAX: 16.01°, -95.21° 25 km
3.9 2017-10-16    01:54:06 135 km al SUROESTE de TONALA, CHIS: 15.10°, -94.50° 15 km
3.6 2017-10-16    01:53:53 11 km al SUR de SALINA CRUZ, OAX: 16.08°, -95.20° 30 km
3.0 2017-10-16    01:50:07 12 km al SUR de ACTOPAN, HGO: 20.16°, -98.94° 5 km
3.6 2017-10-16    01:41:20 11 km al NORESTE de S BLAS ATEMPA, OAX: 16.42°, -95.20° 76 km
3.9 2017-10-16    01:24:15 124 km al SUROESTE de TONALA, CHIS: 15.04°, -94.17° 11 km
3.8 2017-10-16    01:12:28 12 km al NORESTE de S BLAS ATEMPA, OAX: 16.43°, -95.18° 74 km
3.3 2017-10-16    01:07:03 7 km al OESTE de JOJUTLA, MOR: 18.60°, -99.24° 5 km
3.4 2017-10-16    00:47:03 7 km al OESTE de JUCHITAN DE ZARAGOZA, OAX: 16.42°, -95.08° 88 km
3.7 2017-10-16    00:23:21 10 km al SUR de SALINA CRUZ, OAX: 16.09°, -95.22° 67 km
3.7 2017-10-16    00:04:15 112 km al SURESTE de SALINA CRUZ, OAX: 15.27°, -94.73° 16 km

Si deseas más información, consulta nuestro Catálogo de sismos

Sismo de magnitud menor de 4.0

Sismo de magnitud entre 4.0 y 5.9

Sismo de magnitud igual o mayor de 6.0